METAR UND TAF INFORMATION

METAR FOR LZIB
ADDS - METARS form results

(0534 UTC 26 June 2022)
Data provider http://aviationweather.gov/metar/data/
 
METAR text: LZIB 260530Z 11003KT 070V130 CAVOK 20/17 Q1015 NOSIG
Conditions at: LZIB (BRATISLAVA IVANK, SK) observed 0530 UTC 26 June 2022
Temperature: 20.0°C (68°F)
Dewpoint: 17.0°C (63°F) [RH = 83%]
Pressure (altimeter): 29.97 inches Hg (1015.0 mb)
Winds: from the ESE (110 degrees) at 3 MPH (3 knots; 1.5 m/s)
Visibility: 6 or more miles (10+ km)
Ceiling: ceiling and visibility are OK
Clouds: unknown
Weather: no significant weather observed at this time

METAR text: LZIB 260500Z VRB01KT CAVOK 19/16 Q1015 NOSIG
Conditions at: LZIB (BRATISLAVA IVANK, SK) observed 0500 UTC 26 June 2022
Temperature: 19.0°C (66°F)
Dewpoint: 16.0°C (61°F) [RH = 83%]
Pressure (altimeter): 29.97 inches Hg (1015.0 mb)
Winds: variable direction winds at 1 MPH (1 knots; 0.5 m/s)
Visibility: 6 or more miles (10+ km)
Ceiling: ceiling and visibility are OK
Clouds: unknown
Weather: no significant weather observed at this time

Forecast for: LZIB (BRATISLAVA IVANK, SK)
Text: TAF LZIB 260515Z 2606/2706 VRB02KT CAVOK
Forecast period: 0600 UTC 26 June 2022 to 0400 UTC 27 June 2022
Forecast type: FROM: standard forecast or significant change
Winds: variable direction winds at 2 MPH (2 knots; 1.0 m/s)
Visibility: 6 or more miles (10+ km)
Ceiling: unknown
Clouds: missing
Weather: NSW  (no significant weather)
Text: TEMPO 2608/2618 12007KT
Forecast period: 0800 to 1800 UTC 26 June 2022
Forecast type: TEMPORARY: The following changes expected for less than half the time period
Winds: from the ESE (120 degrees) at 8 MPH (7 knots; 3.6 m/s)
Visibility: missing
Ceiling: unknown
Clouds: missing
Weather: no significant weather forecast for this period
Text: BECMG 2704/2706 08006KT
Forecast period: 0400 to 0600 UTC 27 June 2022
Forecast type: BECOMING: Conditions expected to become as follows by 0600 UTC 27 June 2022
Winds: from the E (80 degrees) at 7 MPH (6 knots; 3.1 m/s)
Visibility: 6 or more miles (10+ km)
Ceiling: unknown
Clouds: missing
Weather: NSW  (no significant weather)

 FLUGHAFENKARTE

 RUNWAY INFORMATION
Runway 04 Runway length 9515 ft Runway width 197 ft
Runway elevation 436 ft Runway displaced threshold 0 ft Runway heading 44
Runway 22 Runway length 9515 ft Runway width 197 ft
Runway elevation 430 ft Runway displaced threshold 0 ft Runway heading 224
Runway 13 Runway length 10466 ft Runway width 148 ft
Runway elevation 433 ft Runway displaced threshold 0 ft Runway heading 134
Runway 31 Runway length 10466 ft Runway width 148 ft
Runway elevation 434 ft Runway displaced threshold 777 ft Runway heading 314

 AIRPORT FREQUENCIES
Type APP Name APP Frequency 120.9 MHZ
Type ATIS Name ATIS Frequency 128.65 MHZ
Type TWR Name TWR Frequency 118.3 MHZ

 AIRPORT NEAR NAVIGATION AIDS
Type VOR-DME Name Janovce Frequency 110800 KHZ
Type NDB Name Stefanik South Frequency 330 KHZ
Type NDB Name Stefanik North Frequency 391 KHZ